Lake Asbury Junior High FL US WEATHERSTEM current weather conditions

sailwx.info

Wind from 340 at 3 knots gusting 3

Air temperature 22.8° C
Dewpoint 13.5° C

Last reported at 2020-Oct-01 14:50 UTC.
Time now 2020-Oct-01 16:14 UTC

Location: N 30°03' W 081°48'.
View on Google Maps.

See reports from other nearby stations

  
Tides and Currents Weather Stations Pressure Air Temp Water Temp Dewpoint Dewpoint Depression Visibility Wind Speed Wind Dir Waves Ship Positions
date/time (UTC)wind fromknots sea level pressurealtimeterstation pressurevisibilityair tempwater tempwave heightnotes
2020-Oct-01 14:50 340 3 gusting 3 22.8
2020-Oct-01 14:40 340 3 gusting 3 22.8
2020-Oct-01 14:30 340 3 gusting 3 21.7
2020-Oct-01 14:20 340 3 gusting 3 21.7
2020-Oct-01 14:10 340 3 gusting 3 20.6
2020-Oct-01 14:00 340 3 gusting 3 20.6
2020-Oct-01 13:50 330 1 gusting 1 19.4
2020-Oct-01 05:10 13.9
2020-Oct-01 05:00 13.9
2020-Oct-01 04:50 13.9
2020-Oct-01 04:40 14.4
2020-Oct-01 04:30 14.4
2020-Oct-01 04:20 14.4
2020-Oct-01 04:10 15.0
2020-Oct-01 04:00 14.4
2020-Oct-01 03:50 15.0
2020-Oct-01 03:40 15.0
2020-Oct-01 03:30 15.0
2020-Oct-01 03:20 15.0
2020-Sep-30 21:00 020 4 gusting 4 25.6
2020-Sep-30 20:50 25.6
2020-Sep-30 20:40 25.6
2020-Sep-30 20:30 25.6
2020-Sep-30 20:20 25.6
2020-Sep-30 20:10 25.6
2020-Sep-30 20:00 25.6
2020-Sep-30 16:00 22.8
2020-Sep-30 13:40 330 7 gusting 7 17.8
2020-Sep-30 08:30 300 5 gusting 5 15.6
2020-Sep-30 08:20 300 4 gusting 4 15.6
2020-Sep-30 08:10 300 5 gusting 5 16.1
2020-Sep-30 08:00 310 5 gusting 5 16.1
2020-Sep-30 07:50 310 5 gusting 5 16.1
2020-Sep-30 07:40 310 5 gusting 5 16.1
2020-Sep-30 07:30 300 5 gusting 5 16.1
2020-Sep-30 07:20 300 6 gusting 6 16.7
2020-Sep-30 07:10 300 6 gusting 6 16.7
2020-Sep-30 07:00 300 5 gusting 5 16.7
2020-Sep-30 06:50 300 5 gusting 5 16.7
2020-Sep-30 06:40 300 4 gusting 4 16.7
2020-Sep-30 06:30 300 4 gusting 4 16.7
2020-Sep-30 06:20 300 3 gusting 3 16.7
2020-Sep-30 06:10 300 4 gusting 4 16.7
2020-Sep-30 06:00 300 4 gusting 4 16.7
2020-Sep-30 05:50 310 5 gusting 5 16.7
2020-Sep-30 05:40 310 6 gusting 6 16.7
2020-Sep-30 05:20 320 6 gusting 6 16.7
2020-Sep-30 05:10 320 6 gusting 6 16.7
2020-Sep-30 00:40 330 8 gusting 8 16.7
2020-Sep-29 23:00 320 13 gusting 22 19.4
2020-Sep-29 20:00 250 9 gusting 16 29.4
2020-Sep-29 19:50 250 12 gusting 17 29.4
2020-Sep-29 19:40 240 12 gusting 18 29.4
2020-Sep-29 19:30 240 11 gusting 19 29.4
2020-Sep-29 19:20 240 11 gusting 17 29.4
2020-Sep-29 19:10 240 12 gusting 17 29.4
2020-Sep-29 19:00 240 12 gusting 17 29.4
2020-Sep-29 18:50 230 12 gusting 17 29.4
2020-Sep-29 18:40 220 12 gusting 16 29.4
2020-Sep-29 18:30 210 12 gusting 16 29.4
2020-Sep-29 18:20 210 12 gusting 16 29.4
2020-Sep-29 18:10 210 12 gusting 16 29.4
2020-Sep-29 18:00 210 12 gusting 16 29.4
2020-Sep-29 17:50 220 10 gusting 10 30.0
2020-Sep-29 17:40 220 9 gusting 9 29.4
2020-Sep-29 17:30 220 8 gusting 8 29.4
2020-Sep-29 17:20 220 8 gusting 8 30.0
2020-Sep-29 17:10 220 8 gusting 8 29.4
2020-Sep-29 17:00 220 8 gusting 8 29.4
2020-Sep-29 16:50 210 8 gusting 8 28.9